Time;durP1;ratioP1;P1;durP2;ratioP2;P2;SDS_P1;SDS_P2;PMS_P1;PMS_P2;Temp;Humidity;BMP_temperature;BMP_pressure;BME280_temperature;BME280_humidity;BME280_pressure;Samples;Min_cycle;Max_cycle;Signal;HPM_P1;HPM_P2
2021/06/05 05:32:00;;;;;;;5.38;1.42;;;25.60;44.50;;;;;;4895983;29;20075;-73
2021/06/05 05:34:26;;;;;;;5.45;1.40;;;25.80;43.10;;;;;;4865573;29;20131;-73
2021/06/05 05:36:52;;;;;;;9.18;1.50;;;26.00;42.50;;;;;;4898115;29;20149;-74
2021/06/05 05:39:19;;;;;;;7.07;1.40;;;26.10;41.50;;;;;;4897568;29;20047;-77
2021/06/05 05:41:45;;;;;;;3.67;1.30;;;26.20;39.90;;;;;;4880876;29;20083;-72
2021/06/05 05:44:11;;;;;;;3.53;1.20;;;26.30;41.00;;;;;;4897635;29;20451;-71
2021/06/05 05:46:38;;;;;;;5.28;1.20;;;26.10;40.00;;;;;;4880895;29;20033;-74
2021/06/05 05:49:04;;;;;;;4.13;1.20;;;26.30;39.70;;;;;;4880672;29;20185;-72
2021/06/05 05:51:30;;;;;;;5.28;1.67;;;26.40;40.50;;;;;;4896849;29;20044;-73
2021/06/05 05:53:56;;;;;;;3.45;1.38;;;26.40;39.40;;;;;;4897678;29;20040;-71
2021/06/05 05:56:26;;;;;;;2.58;1.25;;;26.50;39.10;;;;;;4897564;29;20386;-73
2021/06/05 05:58:54;;;;;;;4.47;1.20;;;26.50;39.30;;;;;;4865510;29;20043;-75
2021/06/05 06:01:22;;;;;;;4.38;1.65;;;26.60;39.70;;;;;;4897516;29;20043;-74
2021/06/05 06:03:49;;;;;;;5.10;1.60;;;26.60;38.90;;;;;;4880629;29;20049;-74
2021/06/05 06:06:16;;;;;;;3.58;1.10;;;26.50;38.20;;;;;;4880874;29;20528;-74
2021/06/05 06:08:43;;;;;;;6.45;1.10;;;26.50;38.50;;;;;;4865133;29;20037;-74
2021/06/05 06:11:14;;;;;;;4.20;1.65;;;26.60;38.30;;;;;;4880681;29;20048;-73
2021/06/05 06:13:40;;;;;;;3.40;1.60;;;26.60;38.00;;;;;;4897164;29;20036;-75
2021/06/05 06:16:07;;;;;;;4.70;1.50;;;26.50;37.30;;;;;;4880894;29;20033;-74
2021/06/05 06:18:35;;;;;;;3.67;1.42;;;26.50;37.40;;;;;;4880546;29;20142;-75
2021/06/05 06:21:04;;;;;;;4.75;1.45;;;26.50;37.70;;;;;;4880370;29;20051;-74
2021/06/05 06:23:31;;;;;;;3.60;1.42;;;26.50;37.30;;;;;;4864782;29;20033;-74
2021/06/05 06:25:59;;;;;;;2.03;1.40;;;26.50;37.20;;;;;;4880695;29;20041;-74
2021/06/05 06:28:32;;;;;;;4.15;1.70;;;26.50;38.20;;;;;;4880665;29;20056;-74
2021/06/05 06:31:00;;;;;;;6.43;1.25;;;26.60;36.70;;;;;;4897197;29;20152;-74
2021/06/05 06:33:27;;;;;;;4.25;1.30;;;26.60;37.40;;;;;;4880357;29;20056;-76
2021/06/05 06:35:55;;;;;;;7.22;1.30;;;26.60;37.00;;;;;;4880445;29;20064;-75
2021/06/05 06:38:36;;;;;;;4.72;1.15;;;26.50;36.30;;;;;;4897011;29;20047;-74
2021/06/05 06:41:05;;;;;;;2.70;1.02;;;26.50;34.70;;;;;;4897156;29;20092;-75
2021/06/05 06:43:32;;;;;;;6.65;1.15;;;26.40;34.00;;;;;;4880272;29;20100;-75
2021/06/05 06:46:24;;;;;;;7.53;1.20;;;26.40;34.40;;;;;;4880287;29;20060;-75
2021/06/05 06:48:52;;;;;;;2.45;0.95;;;26.10;33.50;;;;;;4881168;29;20465;-76
2021/06/05 06:51:19;;;;;;;2.97;1.13;;;26.20;34.40;;;;;;4880262;29;20047;-75
2021/06/05 06:53:45;;;;;;;1.70;1.00;;;26.20;35.30;;;;;;4897606;29;20045;-78
2021/06/05 06:56:11;;;;;;;10.15;1.17;;;26.10;35.40;;;;;;4897775;29;20068;-81
2021/06/05 06:58:37;;;;;;;3.28;1.10;;;26.10;34.20;;;;;;4897004;29;20033;-83
2021/06/05 07:01:05;;;;;;;2.25;0.80;;;25.90;33.60;;;;;;4880675;29;20138;-80
2021/06/05 07:03:31;;;;;;;5.47;0.90;;;25.90;33.40;;;;;;4884941;29;20049;-82
2021/06/05 07:05:58;;;;;;;3.92;0.90;;;25.90;33.80;;;;;;4884688;29;20045;-80
2021/06/05 07:08:28;;;;;;;3.72;1.00;;;26.00;34.30;;;;;;4883678;29;20056;-81
2021/06/05 07:10:58;;;;;;;2.92;0.88;;;26.00;33.60;;;;;;4884105;29;20049;-78
2021/06/05 07:13:25;;;;;;;4.80;0.90;;;25.90;33.50;;;;;;4901897;29;20048;-74
2021/06/05 07:15:53;;;;;;;6.25;1.00;;;25.90;33.80;;;;;;4883744;29;20043;-75
2021/06/05 07:18:21;;;;;;;4.68;0.80;;;25.90;33.20;;;;;;4867950;29;20035;-75
2021/06/05 07:20:49;;;;;;;2.28;0.70;;;25.90;34.00;;;;;;4883345;29;20124;-74
2021/06/05 07:23:17;;;;;;;4.90;0.90;;;25.80;33.20;;;;;;4883380;29;20047;-76
2021/06/05 07:25:44;;;;;;;6.53;0.73;;;25.60;33.60;;;;;;4882986;29;20520;-76
2021/06/05 07:28:21;;;;;;;3.60;0.80;;;25.60;34.00;;;;;;4883047;29;20048;-77
2021/06/05 07:30:49;;;;;;;3.83;0.90;;;25.50;34.20;;;;;;4882947;29;20444;-75
2021/06/05 07:33:15;;;;;;;2.80;1.10;;;25.50;34.10;;;;;;4883330;29;20107;-73
2021/06/05 07:35:41;;;;;;;8.45;1.35;;;25.20;34.00;;;;;;4883312;29;20047;-74
2021/06/05 07:38:09;;;;;;;2.88;0.93;;;25.10;35.00;;;;;;4882970;29;20037;-74
2021/06/05 07:40:36;;;;;;;6.28;1.30;;;25.10;34.80;;;;;;4882810;29;20049;-74
2021/06/05 07:43:02;;;;;;;4.10;0.90;;;25.00;35.30;;;;;;4882981;29;20059;-74
2021/06/05 07:45:28;;;;;;;2.08;1.08;;;25.00;35.10;;;;;;4899928;29;20045;-74
2021/06/05 07:47:55;;;;;;;3.47;1.00;;;24.90;35.20;;;;;;4883090;29;20154;-74
2021/06/05 07:50:21;;;;;;;4.80;0.90;;;24.90;35.50;;;;;;4867409;29;20041;-73
2021/06/05 07:52:48;;;;;;;1.27;0.60;;;24.90;35.40;;;;;;4899553;29;20504;-73
2021/06/05 07:55:14;;;;;;;6.53;1.20;;;24.80;35.40;;;;;;4899707;29;20497;-73
2021/06/05 07:57:40;;;;;;;3.92;1.05;;;24.80;35.60;;;;;;4867027;29;20033;-69
2021/06/05 08:00:10;;;;;;;5.25;0.90;;;24.80;34.50;;;;;;4882893;29;20049;-71
2021/06/05 08:02:38;;;;;;;4.72;2.20;;;24.60;34.20;;;;;;4899303;29;20048;-71
2021/06/05 08:05:06;;;;;;;3.15;0.90;;;24.60;35.40;;;;;;4882691;29;20137;-70
2021/06/05 08:07:32;;;;;;;2.58;0.82;;;24.60;34.90;;;;;;4882746;29;20493;-71
2021/06/05 08:09:58;;;;;;;1.05;0.77;;;24.70;35.50;;;;;;4866990;29;20155;-70
2021/06/05 08:12:24;;;;;;;4.13;0.93;;;24.60;35.40;;;;;;4882078;29;20041;-70
2021/06/05 08:14:50;;;;;;;5.03;1.10;;;24.60;35.10;;;;;;4864963;29;20044;-70
2021/06/05 08:17:16;;;;;;;4.53;0.88;;;24.60;35.20;;;;;;4898007;29;20091;-71
2021/06/05 08:19:42;;;;;;;4.05;1.00;;;24.50;35.40;;;;;;4897350;29;20135;-70
2021/06/05 08:22:09;;;;;;;4.82;0.80;;;24.50;35.60;;;;;;4898681;29;20119;-70
2021/06/05 08:24:35;;;;;;;6.03;1.58;;;24.50;35.70;;;;;;4899082;29;20048;-72
2021/06/05 08:27:01;;;;;;;6.07;0.95;;;24.40;34.50;;;;;;4882346;29;20413;-70
2021/06/05 08:29:27;;;;;;;3.42;0.85;;;24.40;34.80;;;;;;4897906;29;20079;-70
2021/06/05 08:31:53;;;;;;;2.45;0.80;;;24.40;34.90;;;;;;4882041;29;20104;-70
2021/06/05 08:34:20;;;;;;;8.93;0.88;;;24.40;36.20;;;;;;4899411;29;20497;-71
2021/06/05 08:36:47;;;;;;;3.33;1.00;;;24.30;35.50;;;;;;4897614;29;20107;-70
2021/06/05 08:39:14;;;;;;;3.83;0.90;;;24.30;35.20;;;;;;4897451;29;20502;-70
2021/06/05 08:41:52;;;;;;;3.90;0.90;;;24.30;35.30;;;;;;4897446;29;20103;-71
2021/06/05 08:44:40;;;;;;;4.15;0.82;;;24.20;34.80;;;;;;4897524;29;20045;-70
2021/06/05 08:47:16;;;;;;;6.63;0.93;;;24.20;35.00;;;;;;4898102;29;20040;-71
2021/06/05 08:49:44;;;;;;;5.13;0.95;;;24.20;35.10;;;;;;4897383;29;20048;-70
2021/06/05 08:52:39;;;;;;;5.88;1.02;;;24.20;34.90;;;;;;4897186;29;20036;-70
2021/06/05 08:55:36;;;;;;;2.47;0.90;;;24.20;34.90;;;;;;4897282;29;20047;-70
2021/06/05 08:58:18;;;;;;;6.35;0.95;;;24.10;35.20;;;;;;4898249;29;20489;-71
2021/06/05 09:00:47;;;;;;;2.70;1.08;;;24.00;35.00;;;;;;4898166;29;20520;-71
2021/06/05 09:03:20;;;;;;;4.20;1.10;;;24.00;35.50;;;;;;4897003;29;20044;-70
2021/06/05 09:05:54;;;;;;;5.22;0.90;;;23.90;36.00;;;;;;4898128;29;20041;-70
2021/06/05 09:08:22;;;;;;;3.63;0.85;;;24.00;36.00;;;;;;4898696;29;20104;-70
2021/06/05 09:10:52;;;;;;;10.52;1.08;;;23.90;35.90;;;;;;4896733;29;20420;-71
2021/06/05 09:13:18;;;;;;;7.30;1.15;;;23.80;35.90;;;;;;4865870;29;20445;-71
2021/06/05 09:15:44;;;;;;;3.85;0.80;;;23.80;36.10;;;;;;4897966;29;20078;-71
2021/06/05 09:18:12;;;;;;;6.05;1.13;;;23.80;36.30;;;;;;4898078;29;20033;-71
2021/06/05 09:20:56;;;;;;;4.18;0.88;;;23.80;35.70;;;;;;4881000;29;20044;-71
2021/06/05 09:23:33;;;;;;;5.22;1.00;;;23.70;35.70;;;;;;4897857;29;20136;-71
2021/06/05 09:26:26;;;;;;;4.20;0.60;;;23.70;35.60;;;;;;4896531;29;20084;-71
2021/06/05 09:29:15;;;;;;;3.63;0.98;;;23.60;35.30;;;;;;4898087;29;20531;-70
2021/06/05 09:31:53;;;;;;;4.32;0.80;;;23.30;35.40;;;;;;4896403;29;20116;-71
2021/06/05 09:34:23;;;;;;;3.75;1.00;;;23.50;35.80;;;;;;4896974;29;20064;-72
2021/06/05 09:36:49;;;;;;;5.35;1.23;;;23.50;35.70;;;;;;4896669;29;20036;-70
2021/06/05 09:39:34;;;;;;;3.97;1.13;;;23.50;35.80;;;;;;4865533;29;20492;-71
2021/06/05 09:42:00;;;;;;;5.75;1.27;;;23.50;35.90;;;;;;4897785;29;20458;-71
2021/06/05 09:44:29;;;;;;;4.68;1.00;;;23.60;35.20;;;;;;4896189;29;20135;-70
2021/06/05 09:47:19;;;;;;;4.93;1.30;;;23.60;35.30;;;;;;4881196;29;20044;-71
2021/06/05 09:49:50;;;;;;;3.95;1.10;;;23.60;35.70;;;;;;4880614;29;20064;-70
2021/06/05 09:52:25;;;;;;;4.82;1.55;;;23.40;35.80;;;;;;4880976;29;20043;-71
2021/06/05 09:55:06;;;;;;;5.63;1.10;;;23.50;37.10;;;;;;4881195;29;20055;-71
2021/06/05 09:57:32;;;;;;;3.10;0.90;;;23.50;36.30;;;;;;4880912;29;20046;-71
2021/06/05 10:00:04;;;;;;;7.82;1.10;;;23.30;36.20;;;;;;4896136;29;20140;-70
2021/06/05 10:02:41;;;;;;;5.97;1.30;;;23.40;36.50;;;;;;4896196;29;20056;-71
2021/06/05 10:05:18;;;;;;;9.15;1.40;;;23.50;36.60;;;;;;4897433;29;20509;-70
2021/06/05 10:07:45;;;;;;;4.95;1.25;;;23.50;36.50;;;;;;4897328;29;20047;-70
2021/06/05 10:10:40;;;;;;;5.63;1.58;;;23.50;36.50;;;;;;4897462;29;20489;-70
2021/06/05 10:13:36;;;;;;;3.95;1.40;;;23.50;36.30;;;;;;4880542;29;20059;-70
2021/06/05 10:16:07;;;;;;;;;;;23.50;36.60;;;;;;4861761;29;20047;-70
2021/06/05 10:18:43;;;;;;;7.40;1.58;;;23.30;36.90;;;;;;4880559;29;19919;-74
2021/06/05 10:21:34;;;;;;;4.50;1.20;;;23.30;37.50;;;;;;4896627;29;20064;-79
2021/06/05 10:24:10;;;;;;;4.80;1.55;;;23.30;37.40;;;;;;4896884;29;20501;-79
2021/06/05 10:26:44;;;;;;;7.38;1.70;;;23.30;37.70;;;;;;4897587;29;20029;-74
2021/06/05 10:29:27;;;;;;;8.30;1.30;;;23.30;37.90;;;;;;4897210;29;20039;-73
2021/06/05 10:31:54;;;;;;;4.32;1.25;;;23.40;37.90;;;;;;4897353;29;20466;-75
2021/06/05 10:34:41;;;;;;;3.53;1.30;;;23.40;38.00;;;;;;4895696;29;20071;-76
2021/06/05 10:37:22;;;;;;;3.58;1.20;;;23.50;38.40;;;;;;4898134;29;20505;-73
2021/06/05 10:39:50;;;;;;;3.83;1.60;;;23.60;38.40;;;;;;4884004;29;20036;-78
2021/06/05 10:42:19;;;;;;;9.27;1.48;;;23.60;38.50;;;;;;4883979;29;20044;-75
2021/06/05 10:44:46;;;;;;;7.45;1.35;;;23.70;38.40;;;;;;4900554;29;20052;-74
2021/06/05 10:47:24;;;;;;;8.80;1.83;;;23.70;38.40;;;;;;4901089;29;20037;-75
2021/06/05 10:50:20;;;;;;;4.22;1.38;;;23.70;38.50;;;;;;4899854;29;20131;-69
2021/06/05 10:52:58;;;;;;;4.25;1.45;;;23.60;39.30;;;;;;4896136;29;20044;-70
2021/06/05 10:55:48;;;;;;;6.15;1.42;;;23.60;39.00;;;;;;4900960;29;20098;-70
2021/06/05 10:58:22;;;;;;;5.88;1.40;;;23.80;39.20;;;;;;4883784;29;20494;-68
2021/06/05 11:00:51;;;;;;;5.35;1.52;;;23.80;39.70;;;;;;4900325;29;20501;-69
2021/06/05 11:03:23;;;;;;;4.50;1.70;;;23.70;40.40;;;;;;4883702;29;20044;-69
2021/06/05 11:06:01;;;;;;;3.33;1.40;;;23.80;40.20;;;;;;4900538;29;20041;-67
2021/06/05 11:08:31;;;;;;;5.80;1.27;;;23.70;39.80;;;;;;4900443;29;20100;-68
2021/06/05 11:11:00;;;;;;;3.92;1.85;;;23.80;40.20;;;;;;4900410;29;20481;-68
2021/06/05 11:13:37;;;;;;;4.78;1.45;;;23.80;40.40;;;;;;4900211;29;20032;-69
2021/06/05 11:16:10;;;;;;;4.82;1.27;;;23.80;40.90;;;;;;4883425;29;20145;-70
2021/06/05 11:19:07;;;;;;;7.32;2.03;;;23.70;40.50;;;;;;4898979;29;20473;-68
2021/06/05 11:21:43;;;;;;;4.65;1.83;;;23.60;40.90;;;;;;4882992;29;20505;-67
2021/06/05 11:24:17;;;;;;;5.95;2.35;;;23.60;41.50;;;;;;4900124;29;20088;-69
2021/06/05 11:26:48;;;;;;;8.13;1.98;;;23.50;41.50;;;;;;4883162;29;20067;-68
2021/06/05 11:29:20;;;;;;;9.65;1.98;;;23.50;41.60;;;;;;4900022;29;20045;-69
2021/06/05 11:31:48;;;;;;;6.30;2.03;;;23.30;41.90;;;;;;4882883;29;20060;-72
2021/06/05 11:34:33;;;;;;;9.15;2.25;;;23.30;42.40;;;;;;4898990;29;20079;-73
2021/06/05 11:37:14;;;;;;;6.28;2.25;;;23.20;43.10;;;;;;4898604;29;20037;-71
2021/06/05 11:39:58;;;;;;;7.40;2.00;;;23.20;43.40;;;;;;4899448;29;20493;-72
2021/06/05 11:42:24;;;;;;;4.55;1.90;;;22.90;44.50;;;;;;4899779;29;20119;-70
2021/06/05 11:44:56;;;;;;;3.05;1.92;;;22.90;44.70;;;;;;4899549;29;20180;-69
2021/06/05 11:47:22;;;;;;;7.80;2.38;;;22.90;44.60;;;;;;4898201;29;20517;-70
2021/06/05 11:49:54;;;;;;;5.97;2.00;;;22.90;44.90;;;;;;4898414;29;20132;-69
2021/06/05 11:52:26;;;;;;;5.30;2.20;;;22.90;45.00;;;;;;4898530;29;20111;-69
2021/06/05 11:54:59;;;;;;;5.97;2.42;;;23.00;44.90;;;;;;4898899;29;20389;-70
2021/06/05 11:57:31;;;;;;;6.85;2.13;;;23.00;44.80;;;;;;4882585;29;20049;-70
2021/06/05 12:00:04;;;;;;;8.73;2.38;;;23.00;44.90;;;;;;4882426;29;20037;-69
2021/06/05 12:02:35;;;;;;;8.25;2.10;;;23.10;44.60;;;;;;4898106;29;20477;-72
2021/06/05 12:05:17;;;;;;;10.20;2.20;;;23.00;44.40;;;;;;4882666;29;20037;-72
2021/06/05 12:07:44;;;;;;;6.97;3.08;;;23.10;44.40;;;;;;4882559;29;20135;-73
2021/06/05 12:10:31;;;;;;;12.52;2.40;;;23.10;44.60;;;;;;4898387;29;20048;-69
2021/06/05 12:13:01;;;;;;;5.30;2.00;;;23.10;44.80;;;;;;4898946;29;20519;-73
2021/06/05 12:15:40;;;;;;;6.88;2.08;;;23.00;44.40;;;;;;4882386;29;20039;-72
2021/06/05 12:18:09;;;;;;;3.47;1.92;;;23.00;44.80;;;;;;4898082;29;20036;-73
2021/06/05 12:21:06;;;;;;;3.03;2.08;;;22.90;45.00;;;;;;4897362;29;20414;-71
2021/06/05 12:23:41;;;;;;;4.95;2.05;;;22.90;45.30;;;;;;4897666;29;20074;-70
2021/06/05 12:26:13;;;;;;;10.57;2.85;;;22.80;45.40;;;;;;4898851;29;20035;-71
2021/06/05 12:28:59;;;;;;;7.50;2.33;;;22.90;45.60;;;;;;4899016;29;20131;-71
2021/06/05 12:31:40;;;;;;;6.78;2.22;;;22.90;45.70;;;;;;4898964;29;20049;-70
2021/06/05 12:34:12;;;;;;;7.38;2.15;;;23.00;45.60;;;;;;4898976;29;20190;-70
2021/06/05 12:36:44;;;;;;;9.30;2.13;;;23.10;45.50;;;;;;4881934;29;20033;-69
2021/06/05 12:39:19;;;;;;;4.28;2.00;;;23.20;45.40;;;;;;4897478;29;20047;-70
2021/06/05 12:41:48;;;;;;;5.82;1.92;;;23.20;45.30;;;;;;4898419;29;20529;-70
2021/06/05 12:44:18;;;;;;;5.22;2.33;;;23.20;45.70;;;;;;4897545;29;20378;-69
2021/06/05 12:46:44;;;;;;;6.82;2.55;;;23.20;46.00;;;;;;4898669;29;20043;-69
2021/06/05 12:49:17;;;;;;;6.75;2.00;;;23.10;45.90;;;;;;4881883;29;20039;-68
2021/06/05 12:51:50;;;;;;;8.52;1.83;;;23.10;46.00;;;;;;4897354;29;20051;-69
2021/06/05 12:54:31;;;;;;;5.88;2.60;;;23.20;46.10;;;;;;4866071;29;20049;-70
2021/06/05 12:57:18;;;;;;;5.43;2.13;;;23.20;46.40;;;;;;4898455;29;20036;-70
2021/06/05 12:59:44;;;;;;;5.10;2.60;;;23.00;46.90;;;;;;4880729;29;20037;-71
2021/06/05 13:02:28;;;;;;;7.53;2.45;;;23.10;46.90;;;;;;4881485;29;20047;-74
2021/06/05 13:04:55;;;;;;;6.60;1.90;;;22.90;47.10;;;;;;4896911;29;20044;-72
2021/06/05 13:07:37;;;;;;;8.10;2.35;;;22.90;47.40;;;;;;4897917;29;20048;-72
2021/06/05 13:10:17;;;;;;;4.32;2.75;;;22.90;47.90;;;;;;4881455;29;20041;-71
2021/06/05 13:12:43;;;;;;;11.77;2.70;;;23.10;47.80;;;;;;4896786;29;20404;-71
2021/06/05 13:15:32;;;;;;;14.30;2.33;;;23.10;47.60;;;;;;4880978;29;20075;-70
2021/06/05 13:17:59;;;;;;;8.93;2.40;;;23.10;47.60;;;;;;4898019;29;20044;-72
2021/06/05 13:20:45;;;;;;;6.28;2.13;;;23.10;47.40;;;;;;4881053;29;20048;-74
2021/06/05 13:23:36;;;;;;;6.70;2.25;;;23.00;47.60;;;;;;4898001;29;20501;-72
2021/06/05 13:26:39;;;;;;;8.70;2.70;;;23.10;47.50;;;;;;4881221;29;20056;-70
2021/06/05 13:29:27;;;;;;;7.55;2.20;;;23.00;47.50;;;;;;4898047;29;20036;-72
2021/06/05 13:31:57;;;;;;;6.80;2.75;;;23.00;47.60;;;;;;4897742;29;20056;-71
2021/06/05 13:34:37;;;;;;;8.35;2.67;;;23.00;47.50;;;;;;4896838;29;20044;-73
2021/06/05 13:37:18;;;;;;;6.95;2.88;;;22.90;48.00;;;;;;4898453;29;20071;-74
2021/06/05 13:39:45;;;;;;;5.07;2.60;;;23.00;48.20;;;;;;4896707;29;20115;-74
2021/06/05 13:42:11;;;;;;;7.90;2.83;;;23.00;48.60;;;;;;4896500;29;20501;-74
2021/06/05 13:44:39;;;;;;;10.00;3.22;;;22.90;49.00;;;;;;4897429;29;20059;-74
2021/06/05 13:47:12;;;;;;;7.95;2.60;;;22.90;49.10;;;;;;4897565;29;20041;-71
2021/06/05 13:49:39;;;;;;;17.58;3.55;;;22.90;49.20;;;;;;4897565;29;20036;-73
2021/06/05 13:52:30;;;;;;;7.00;2.50;;;22.80;49.50;;;;;;4897658;29;20032;-73
2021/06/05 13:55:14;;;;;;;9.30;3.63;;;22.90;49.60;;;;;;4880362;29;20509;-73
2021/06/05 13:57:41;;;;;;;11.75;3.00;;;22.80;49.60;;;;;;4880934;29;20044;-74
2021/06/05 14:00:09;;;;;;;7.93;2.85;;;22.90;49.80;;;;;;4896308;29;20056;-74
2021/06/05 14:02:38;;;;;;;6.72;3.05;;;22.80;50.20;;;;;;4897343;29;20522;-72
2021/06/05 14:05:04;;;;;;;5.63;3.00;;;22.60;50.40;;;;;;4880458;29;20033;-72
2021/06/05 14:07:30;;;;;;;5.15;2.80;;;22.70;50.50;;;;;;4897333;29;20043;-72
2021/06/05 14:09:56;;;;;;;4.88;2.70;;;22.70;50.30;;;;;;4897545;29;20044;-72
2021/06/05 14:12:26;;;;;;;6.15;2.90;;;22.60;50.70;;;;;;4883232;29;20029;-74
2021/06/05 14:14:53;;;;;;;10.98;3.20;;;22.50;50.80;;;;;;4900122;29;20489;-73
2021/06/05 14:17:19;;;;;;;7.18;3.00;;;22.40;51.00;;;;;;4901144;29;20545;-74
2021/06/05 14:19:45;;;;;;;10.82;2.90;;;22.40;51.40;;;;;;4884362;29;20139;-74
2021/06/05 14:22:12;;;;;;;6.40;2.70;;;22.40;51.20;;;;;;4900988;29;20174;-70
2021/06/05 14:24:38;;;;;;;9.50;3.58;;;22.40;51.50;;;;;;4884315;29;20072;-71
2021/06/05 14:27:05;;;;;;;8.98;3.28;;;22.40;51.80;;;;;;4869002;29;20048;-70
2021/06/05 14:29:32;;;;;;;12.70;3.28;;;22.40;51.80;;;;;;4884192;29;20032;-71
2021/06/05 14:32:01;;;;;;;10.48;3.47;;;22.20;52.00;;;;;;4884201;29;20071;-72
2021/06/05 14:34:26;;;;;;;6.18;3.10;;;22.30;52.00;;;;;;4899855;29;20052;-71
2021/06/05 14:36:53;;;;;;;6.32;3.25;;;22.40;51.80;;;;;;4899848;29;20441;-75
2021/06/05 14:39:19;;;;;;;8.20;3.85;;;22.40;52.00;;;;;;4899565;29;20465;-72
2021/06/05 14:41:48;;;;;;;8.00;3.40;;;22.20;52.40;;;;;;4899619;29;20444;-73
2021/06/05 14:44:14;;;;;;;8.63;3.15;;;22.10;52.90;;;;;;4901047;29;20041;-74
2021/06/05 14:46:40;;;;;;;5.97;3.00;;;22.10;52.90;;;;;;4899339;29;20150;-74
2021/06/05 14:49:08;;;;;;;5.07;3.38;;;22.10;53.10;;;;;;4899751;29;20092;-74
2021/06/05 14:51:34;;;;;;;7.65;3.47;;;22.20;53.10;;;;;;4883798;29;20496;-73
2021/06/05 14:54:00;;;;;;;7.65;3.60;;;22.00;53.40;;;;;;4884577;29;20045;-74
2021/06/05 14:56:26;;;;;;;10.80;3.92;;;22.10;53.30;;;;;;4883931;29;20075;-77
2021/06/05 14:58:52;;;;;;;9.95;3.97;;;22.20;53.00;;;;;;4868216;29;20513;-75
2021/06/05 15:01:18;;;;;;;9.70;4.35;;;22.30;52.80;;;;;;4883521;29;20047;-73
2021/06/05 15:03:44;;;;;;;10.45;4.10;;;22.20;53.20;;;;;;4900981;29;20056;-76
2021/06/05 15:06:10;;;;;;;10.82;4.22;;;22.40;52.90;;;;;;4883400;29;20405;-73
2021/06/05 15:08:36;;;;;;;4.95;4.30;;;22.30;52.90;;;;;;4900367;29;20033;-76
2021/06/05 15:11:02;;;;;;;10.20;4.57;;;22.40;52.90;;;;;;4883926;29;20152;-76
2021/06/05 15:13:28;;;;;;;7.90;3.92;;;22.30;53.20;;;;;;4868035;29;20405;-74
2021/06/05 15:15:54;;;;;;;9.60;4.20;;;22.10;53.70;;;;;;4883410;29;20183;-75
2021/06/05 15:18:20;;;;;;;9.63;4.30;;;22.10;53.80;;;;;;4900232;29;20468;-76
2021/06/05 15:20:46;;;;;;;9.13;4.50;;;22.00;54.10;;;;;;4900229;29;20045;-75
2021/06/05 15:23:14;;;;;;;10.82;4.22;;;22.00;54.20;;;;;;4899595;29;20048;-75
2021/06/05 15:25:43;;;;;;;6.93;4.55;;;22.10;53.90;;;;;;4883227;29;20033;-74
2021/06/05 15:28:10;;;;;;;9.18;4.28;;;22.10;54.30;;;;;;4883386;29;20044;-75
2021/06/05 15:30:38;;;;;;;10.40;4.18;;;22.00;54.60;;;;;;4867533;29;20056;-75
2021/06/05 15:33:06;;;;;;;9.43;4.22;;;21.80;55.20;;;;;;4899678;29;20046;-75
2021/06/05 15:35:34;;;;;;;10.48;4.78;;;21.90;55.10;;;;;;4883109;29;20060;-74
2021/06/05 15:38:03;;;;;;;10.52;4.50;;;22.00;54.90;;;;;;4883488;29;20495;-74
2021/06/05 15:40:30;;;;;;;16.25;5.07;;;22.20;54.40;;;;;;4883111;29;20040;-76
2021/06/05 15:42:57;;;;;;;10.23;4.57;;;22.20;54.90;;;;;;4882873;29;20047;-80
2021/06/05 15:45:29;;;;;;;10.63;5.57;;;22.10;55.60;;;;;;4899570;29;20041;-72
2021/06/05 15:47:55;;;;;;;13.57;5.25;;;21.80;56.20;;;;;;4899591;29;20516;-72
2021/06/05 15:50:22;;;;;;;13.60;5.63;;;21.90;56.10;;;;;;4898321;29;20051;-73
2021/06/05 15:52:49;;;;;;;11.93;5.10;;;21.80;56.60;;;;;;4883090;29;20036;-74
2021/06/05 15:55:15;;;;;;;11.40;6.55;;;21.90;56.90;;;;;;4898429;29;20093;-74
2021/06/05 15:57:42;;;;;;;8.27;5.00;;;21.70;57.20;;;;;;4899783;29;20083;-76
2021/06/05 16:00:14;;;;;;;10.77;4.55;;;21.70;57.40;;;;;;4899374;29;20413;-70
2021/06/05 16:02:40;;;;;;;8.57;4.97;;;21.80;57.50;;;;;;4898085;29;20526;-70
2021/06/05 16:05:08;;;;;;;10.70;4.50;;;21.80;57.60;;;;;;4882751;29;20048;-75
2021/06/05 16:07:34;;;;;;;12.40;5.28;;;21.90;57.20;;;;;;4882682;29;20032;-75
2021/06/05 16:10:00;;;;;;;7.93;4.43;;;21.60;58.10;;;;;;4898307;29;20520;-76
2021/06/05 16:12:26;;;;;;;8.88;5.10;;;21.70;58.10;;;;;;4882618;29;20060;-78
2021/06/05 16:14:52;;;;;;;8.98;4.70;;;21.80;57.80;;;;;;4882479;29;20549;-77
2021/06/05 16:17:18;;;;;;;7.88;4.72;;;21.90;57.60;;;;;;4899249;29;20064;-73
2021/06/05 16:19:44;;;;;;;8.00;4.93;;;22.00;57.60;;;;;;4899034;29;20068;-76
2021/06/05 16:22:10;;;;;;;7.53;4.68;;;22.00;57.90;;;;;;4898786;29;20041;-74
2021/06/05 16:24:36;;;;;;;9.02;5.68;;;21.90;58.70;;;;;;4899122;29;20116;-73
2021/06/05 16:27:02;;;;;;;12.88;5.38;;;22.00;58.40;;;;;;4898779;29;20048;-73
2021/06/05 16:29:29;;;;;;;9.07;5.82;;;22.10;58.00;;;;;;4898764;29;20047;-74
2021/06/05 16:31:56;;;;;;;10.13;5.57;;;22.00;58.10;;;;;;4897409;29;20067;-76
2021/06/05 16:34:23;;;;;;;8.32;4.80;;;21.80;58.60;;;;;;4881154;29;20070;-75
2021/06/05 16:36:50;;;;;;;7.43;5.50;;;22.00;57.80;;;;;;4897788;29;20127;-75
2021/06/05 16:39:17;;;;;;;9.88;4.80;;;21.70;57.20;;;;;;4897472;29;20099;-74
2021/06/05 16:41:44;;;;;;;8.40;4.30;;;21.70;57.80;;;;;;4882016;29;20041;-74
2021/06/05 16:44:10;;;;;;;7.32;4.55;;;21.70;58.00;;;;;;4882002;29;20044;-77
2021/06/05 16:46:37;;;;;;;6.97;4.20;;;21.80;56.80;;;;;;4881574;29;20035;-77
2021/06/05 16:49:04;;;;;;;7.32;4.07;;;21.70;56.80;;;;;;4881940;29;20398;-75
2021/06/05 16:51:30;;;;;;;4.75;3.47;;;21.80;57.00;;;;;;4881620;29;20040;-73
2021/06/05 16:53:56;;;;;;;7.78;3.92;;;21.70;57.00;;;;;;4881786;29;20037;-72
2021/06/05 16:56:27;;;;;;;7.82;4.18;;;21.70;56.90;;;;;;4898348;29;20041;-75
2021/06/05 16:58:53;;;;;;;8.45;4.15;;;21.80;56.60;;;;;;4865953;29;20490;-74
2021/06/05 17:01:23;;;;;;;5.93;3.90;;;21.80;56.80;;;;;;4898301;29;20052;-75
2021/06/05 17:03:49;;;;;;;7.38;4.10;;;21.50;57.20;;;;;;4881999;29;20044;-72
2021/06/05 17:06:16;;;;;;;19.60;4.25;;;21.30;57.90;;;;;;4881352;29;20085;-75
2021/06/05 17:08:42;;;;;;;12.80;5.20;;;21.50;57.50;;;;;;4897150;29;20047;-80
2021/06/05 17:11:09;;;;;;;6.78;5.10;;;21.60;57.50;;;;;;4898467;29;20393;-74
2021/06/05 17:13:36;;;;;;;6.07;4.00;;;21.60;57.50;;;;;;4897923;29;20040;-75
2021/06/05 17:16:02;;;;;;;14.43;10.57;;;21.80;57.40;;;;;;4881835;29;20048;-75
2021/06/05 17:18:30;;;;;;;11.27;6.60;;;21.70;57.50;;;;;;4898013;29;20161;-71
2021/06/05 17:20:59;;;;;;;8.20;4.93;;;21.70;57.60;;;;;;4896935;29;20039;-72
2021/06/05 17:23:30;;;;;;;11.00;5.07;;;21.60;57.60;;;;;;4880969;29;20052;-72
2021/06/05 17:25:57;;;;;;;13.73;5.80;;;21.70;57.80;;;;;;4881278;29;20049;-73
2021/06/05 17:28:25;;;;;;;9.63;5.20;;;21.60;57.90;;;;;;4896769;29;20059;-71
2021/06/05 17:30:52;;;;;;;8.80;4.50;;;21.60;57.90;;;;;;4896782;29;20496;-72
2021/06/05 17:33:21;;;;;;;9.27;5.15;;;21.40;58.10;;;;;;4881120;29;20044;-70
2021/06/05 17:35:47;;;;;;;8.35;4.80;;;21.30;58.60;;;;;;4896855;29;20040;-71
2021/06/05 17:38:15;;;;;;;7.40;4.05;;;21.30;58.50;;;;;;4898118;29;20028;-70
2021/06/05 17:40:43;;;;;;;7.15;4.13;;;21.10;58.50;;;;;;4880970;29;20454;-71
2021/06/05 17:43:13;;;;;;;7.13;3.35;;;21.10;58.60;;;;;;4897556;29;20036;-69
2021/06/05 17:45:43;;;;;;;4.88;3.60;;;21.00;58.40;;;;;;4896340;29;20084;-71
2021/06/05 17:48:10;;;;;;;7.75;3.50;;;20.70;59.10;;;;;;4880923;29;20041;-70
2021/06/05 17:50:36;;;;;;;6.32;3.70;;;20.70;59.60;;;;;;4896326;29;20529;-70
2021/06/05 17:53:04;;;;;;;7.15;4.22;;;20.70;59.60;;;;;;4880793;29;20040;-72
2021/06/05 17:55:32;;;;;;;6.53;4.10;;;20.70;59.70;;;;;;4865371;29;20048;-73
2021/06/05 17:58:00;;;;;;;15.75;9.95;;;20.70;59.80;;;;;;4880882;29;20028;-72
2021/06/05 18:00:37;;;;;;;10.43;5.70;;;20.70;60.00;;;;;;4896251;29;20421;-72
2021/06/05 18:03:07;;;;;;;12.13;4.80;;;20.80;60.00;;;;;;4880658;29;20512;-70
2021/06/05 18:05:33;;;;;;;16.08;7.00;;;20.80;60.00;;;;;;4896050;29;20036;-72
2021/06/05 18:07:59;;;;;;;7.45;5.95;;;20.80;60.00;;;;;;4896079;29;20056;-70
2021/06/05 18:10:25;;;;;;;10.38;5.72;;;20.90;59.80;;;;;;4897395;29;20044;-71
2021/06/05 18:12:52;;;;;;;12.93;5.28;;;21.10;59.30;;;;;;4880606;29;20047;-73
2021/06/05 18:15:21;;;;;;;7.28;5.10;;;21.30;59.50;;;;;;4880344;29;20029;-75
2021/06/05 18:17:47;;;;;;;8.20;5.35;;;21.50;59.30;;;;;;4880511;29;20037;-76
2021/06/05 18:20:27;;;;;;;9.65;5.22;;;21.60;58.60;;;;;;4895868;29;20061;-74
2021/06/05 18:22:55;;;;;;;13.77;6.00;;;21.70;58.20;;;;;;4896109;29;20115;-79
2021/06/05 18:25:23;;;;;;;7.78;5.55;;;21.80;57.90;;;;;;4880559;29;20040;-81
2021/06/05 18:27:51;;;;;;;8.35;5.75;;;21.80;57.70;;;;;;4897293;29;20029;-77
2021/06/05 18:30:28;;;;;;;8.02;5.40;;;21.80;57.60;;;;;;4880495;29;20060;-78
2021/06/05 18:32:56;;;;;;;7.93;6.00;;;21.80;57.50;;;;;;4896180;29;20131;-80
2021/06/05 18:35:23;;;;;;;11.90;6.68;;;21.80;57.50;;;;;;4897166;29;20033;-81